sensor_id;sensor_type;location;lat;lon;timestamp;pressure;altitude;pressure_sealevel;temperature;humidity
77482;BME280;66582;43.004;-75.010;2023-07-13T00:02:17;99899.78;;;25.52;74.91
77482;BME280;66582;43.004;-75.010;2023-07-13T00:04:42;99886.78;;;26.56;70.71
77482;BME280;66582;43.004;-75.010;2023-07-13T00:07:08;99881.65;;;26.13;66.78
77482;BME280;66582;43.004;-75.010;2023-07-13T00:09:32;99876.84;;;27.69;61.43
77482;BME280;66582;43.004;-75.010;2023-07-13T00:11:58;99877.06;;;26.95;62.39
77482;BME280;66582;43.004;-75.010;2023-07-13T00:14:24;99873.04;;;27.93;60.06
77482;BME280;66582;43.004;-75.010;2023-07-13T00:16:49;99877.38;;;27.32;59.43
77482;BME280;66582;43.004;-75.010;2023-07-13T00:19:14;99874.55;;;28.31;57.03
77482;BME280;66582;43.004;-75.010;2023-07-13T00:21:39;99874.43;;;26.98;59.36
77482;BME280;66582;43.004;-75.010;2023-07-13T00:24:06;99871.99;;;26.31;65.06
77482;BME280;66582;43.004;-75.010;2023-07-13T00:26:31;99876.18;;;25.04;70.59
77482;BME280;66582;43.004;-75.010;2023-07-13T00:28:56;99873.35;;;25.59;69.13
77482;BME280;66582;43.004;-75.010;2023-07-13T00:31:21;99880.76;;;25.19;71.04
77482;BME280;66582;43.004;-75.010;2023-07-13T00:33:46;99885.72;;;24.70;73.81
77482;BME280;66582;43.004;-75.010;2023-07-13T00:36:13;99886.35;;;25.01;71.67
77482;BME280;66582;43.004;-75.010;2023-07-13T00:38:38;99881.55;;;25.73;71.59
77482;BME280;66582;43.004;-75.010;2023-07-13T00:41:04;99882.89;;;25.50;74.18
77482;BME280;66582;43.004;-75.010;2023-07-13T00:43:29;99885.27;;;25.69;73.01
77482;BME280;66582;43.004;-75.010;2023-07-13T00:46:15;99888.47;;;25.51;72.65
77482;BME280;66582;43.004;-75.010;2023-07-13T00:48:21;99882.86;;;25.00;73.81
77482;BME280;66582;43.004;-75.010;2023-07-13T00:50:50;99879.56;;;24.77;78.48
77482;BME280;66582;43.004;-75.010;2023-07-13T00:53:11;99880.88;;;26.10;71.87
77482;BME280;66582;43.004;-75.010;2023-07-13T00:55:37;99881.13;;;26.36;70.07
77482;BME280;66582;43.004;-75.010;2023-07-13T00:58:03;99888.32;;;25.53;72.98
77482;BME280;66582;43.004;-75.010;2023-07-13T01:00:29;99888.21;;;24.51;79.01
77482;BME280;66582;43.004;-75.010;2023-07-13T01:02:53;99886.66;;;24.74;78.23
77482;BME280;66582;43.004;-75.010;2023-07-13T01:05:21;99893.01;;;24.06;82.25
77482;BME280;66582;43.004;-75.010;2023-07-13T01:07:45;99897.19;;;24.01;85.90
77482;BME280;66582;43.004;-75.010;2023-07-13T01:10:12;99900.89;;;23.12;90.61
77482;BME280;66582;43.004;-75.010;2023-07-13T01:12:36;99900.38;;;23.96;90.52
77482;BME280;66582;43.004;-75.010;2023-07-13T01:15:01;99900.90;;;23.76;89.56
77482;BME280;66582;43.004;-75.010;2023-07-13T01:17:27;99902.48;;;24.28;84.59
77482;BME280;66582;43.004;-75.010;2023-07-13T01:19:52;99902.30;;;25.27;78.61
77482;BME280;66582;43.004;-75.010;2023-07-13T01:22:19;99901.53;;;25.18;76.60
77482;BME280;66582;43.004;-75.010;2023-07-13T01:24:45;99896.62;;;26.11;73.64
77482;BME280;66582;43.004;-75.010;2023-07-13T01:27:10;99903.58;;;25.49;74.95
77482;BME280;66582;43.004;-75.010;2023-07-13T01:29:36;99906.59;;;25.02;76.79
77482;BME280;66582;43.004;-75.010;2023-07-13T01:32:00;99899.02;;;25.72;73.55
77482;BME280;66582;43.004;-75.010;2023-07-13T01:34:25;99894.79;;;24.88;76.11
77482;BME280;66582;43.004;-75.010;2023-07-13T01:36:51;99895.41;;;24.11;80.51
77482;BME280;66582;43.004;-75.010;2023-07-13T01:39:16;99900.56;;;24.89;79.36
77482;BME280;66582;43.004;-75.010;2023-07-13T01:41:42;99910.74;;;20.57;100.00
77482;BME280;66582;43.004;-75.010;2023-07-13T01:44:08;99899.96;;;22.92;96.65
77482;BME280;66582;43.004;-75.010;2023-07-13T01:46:32;99903.36;;;20.53;100.00
77482;BME280;66582;43.004;-75.010;2023-07-13T01:48:57;99909.00;;;20.97;100.00
77482;BME280;66582;43.004;-75.010;2023-07-13T01:51:24;99909.23;;;22.83;98.30
77482;BME280;66582;43.004;-75.010;2023-07-13T01:53:49;99920.53;;;23.14;93.43
77482;BME280;66582;43.004;-75.010;2023-07-13T01:56:14;99926.38;;;23.35;92.37
77482;BME280;66582;43.004;-75.010;2023-07-13T01:58:39;99927.15;;;23.45;88.92
77482;BME280;66582;43.004;-75.010;2023-07-13T02:01:05;99932.98;;;24.11;85.82
77482;BME280;66582;43.004;-75.010;2023-07-13T02:03:31;99928.70;;;24.24;84.94
77482;BME280;66582;43.004;-75.010;2023-07-13T02:05:56;99922.27;;;23.86;87.03
77482;BME280;66582;43.004;-75.010;2023-07-13T02:08:22;99914.17;;;24.87;79.49
77482;BME280;66582;43.004;-75.010;2023-07-13T02:10:47;99905.63;;;24.79;78.25
77482;BME280;66582;43.004;-75.010;2023-07-13T02:13:13;99902.19;;;24.90;76.31
77482;BME280;66582;43.004;-75.010;2023-07-13T02:15:39;99900.69;;;24.86;78.46
77482;BME280;66582;43.004;-75.010;2023-07-13T02:18:03;99905.14;;;24.90;77.91
77482;BME280;66582;43.004;-75.010;2023-07-13T02:20:28;99902.75;;;24.84;74.61
77482;BME280;66582;43.004;-75.010;2023-07-13T02:22:53;99902.69;;;25.17;73.46
77482;BME280;66582;43.004;-75.010;2023-07-13T02:25:20;99902.08;;;24.94;73.20
77482;BME280;66582;43.004;-75.010;2023-07-13T02:27:45;99904.14;;;25.48;71.83
77482;BME280;66582;43.004;-75.010;2023-07-13T02:30:11;99900.77;;;23.02;81.29
77482;BME280;66582;43.004;-75.010;2023-07-13T02:32:35;99892.30;;;23.81;80.46
77482;BME280;66582;43.004;-75.010;2023-07-13T02:35:02;99899.08;;;21.28;95.72
77482;BME280;66582;43.004;-75.010;2023-07-13T02:37:27;99896.77;;;19.56;100.00
77482;BME280;66582;43.004;-75.010;2023-07-13T02:39:53;99894.34;;;21.88;97.20
77482;BME280;66582;43.004;-75.010;2023-07-13T02:42:18;99895.56;;;23.42;90.32
77482;BME280;66582;43.004;-75.010;2023-07-13T02:44:43;99896.16;;;23.30;86.72
77482;BME280;66582;43.004;-75.010;2023-07-13T02:47:08;99904.07;;;21.57;95.62
77482;BME280;66582;43.004;-75.010;2023-07-13T02:49:34;99899.36;;;22.37;91.62
77482;BME280;66582;43.004;-75.010;2023-07-13T02:51:59;99897.62;;;22.08;95.05
77482;BME280;66582;43.004;-75.010;2023-07-13T02:54:25;99892.50;;;22.60;90.22
77482;BME280;66582;43.004;-75.010;2023-07-13T02:56:50;99881.28;;;23.85;82.07
77482;BME280;66582;43.004;-75.010;2023-07-13T02:59:16;99883.74;;;23.41;82.81
77482;BME280;66582;43.004;-75.010;2023-07-13T03:01:42;99884.00;;;22.30;88.71
77482;BME280;66582;43.004;-75.010;2023-07-13T03:04:07;99885.39;;;21.41;95.57
77482;BME280;66582;43.004;-75.010;2023-07-13T03:06:34;99876.61;;;22.73;92.67
77482;BME280;66582;43.004;-75.010;2023-07-13T03:08:58;99875.27;;;22.18;92.00
77482;BME280;66582;43.004;-75.010;2023-07-13T03:11:25;99880.00;;;21.46;96.29
77482;BME280;66582;43.004;-75.010;2023-07-13T03:13:50;99867.28;;;22.73;90.91
77482;BME280;66582;43.004;-75.010;2023-07-13T03:16:16;99862.04;;;23.48;87.01
77482;BME280;66582;43.004;-75.010;2023-07-13T03:18:41;99868.88;;;21.43;94.39
77482;BME280;66582;43.004;-75.010;2023-07-13T03:21:07;99861.61;;;21.95;94.79
77482;BME280;66582;43.004;-75.010;2023-07-13T03:23:32;99862.03;;;19.98;100.00
77482;BME280;66582;43.004;-75.010;2023-07-13T03:26:03;99859.24;;;18.87;100.00
77482;BME280;66582;43.004;-75.010;2023-07-13T03:28:22;99856.85;;;19.93;100.00
77482;BME280;66582;43.004;-75.010;2023-07-13T03:30:47;99852.14;;;21.98;99.44
77482;BME280;66582;43.004;-75.010;2023-07-13T03:33:12;99855.70;;;21.96;97.14
77482;BME280;66582;43.004;-75.010;2023-07-13T03:35:40;99852.09;;;22.57;92.58
77482;BME280;66582;43.004;-75.010;2023-07-13T03:38:03;99851.15;;;22.98;90.14
77482;BME280;66582;43.004;-75.010;2023-07-13T03:40:29;99858.21;;;19.97;100.00
77482;BME280;66582;43.004;-75.010;2023-07-13T03:42:54;99850.81;;;19.32;100.00
77482;BME280;66582;43.004;-75.010;2023-07-13T03:45:20;99850.35;;;18.49;100.00
77482;BME280;66582;43.004;-75.010;2023-07-13T03:47:45;99845.31;;;20.53;100.00
77482;BME280;66582;43.004;-75.010;2023-07-13T03:50:11;99843.30;;;20.71;100.00
77482;BME280;66582;43.004;-75.010;2023-07-13T03:52:35;99836.60;;;20.95;100.00
77482;BME280;66582;43.004;-75.010;2023-07-13T03:55:01;99836.00;;;20.54;100.00
77482;BME280;66582;43.004;-75.010;2023-07-13T03:57:27;99832.08;;;19.93;100.00
77482;BME280;66582;43.004;-75.010;2023-07-13T03:59:51;99828.76;;;19.28;100.00
77482;BME280;66582;43.004;-75.010;2023-07-13T04:02:17;99836.38;;;17.96;100.00
77482;BME280;66582;43.004;-75.010;2023-07-13T04:04:42;99836.80;;;17.92;100.00
77482;BME280;66582;43.004;-75.010;2023-07-13T04:07:08;99836.97;;;18.39;100.00
77482;BME280;66582;43.004;-75.010;2023-07-13T04:09:33;99831.69;;;18.17;100.00
77482;BME280;66582;43.004;-75.010;2023-07-13T04:11:59;99822.91;;;20.53;100.00
77482;BME280;66582;43.004;-75.010;2023-07-13T04:14:24;99822.62;;;17.76;100.00
77482;BME280;66582;43.004;-75.010;2023-07-13T04:16:51;99818.60;;;18.64;100.00
77482;BME280;66582;43.004;-75.010;2023-07-13T04:19:15;99815.72;;;20.55;100.00
77482;BME280;66582;43.004;-75.010;2023-07-13T04:21:41;99810.87;;;21.23;100.00
77482;BME280;66582;43.004;-75.010;2023-07-13T04:24:06;99810.91;;;21.34;100.00
77482;BME280;66582;43.004;-75.010;2023-07-13T04:26:31;99814.80;;;17.96;100.00
77482;BME280;66582;43.004;-75.010;2023-07-13T04:28:58;99812.49;;;17.00;100.00
77482;BME280;66582;43.004;-75.010;2023-07-13T04:31:23;99807.99;;;17.66;100.00
77482;BME280;66582;43.004;-75.010;2023-07-13T04:33:48;99796.92;;;19.27;100.00
77482;BME280;66582;43.004;-75.010;2023-07-13T04:36:13;99787.88;;;21.54;100.00
77482;BME280;66582;43.004;-75.010;2023-07-13T04:38:39;99788.57;;;21.92;100.00
77482;BME280;66582;43.004;-75.010;2023-07-13T04:41:06;99794.92;;;19.74;100.00
77482;BME280;66582;43.004;-75.010;2023-07-13T04:43:31;99797.84;;;19.33;100.00
77482;BME280;66582;43.004;-75.010;2023-07-13T04:45:56;99805.32;;;20.63;100.00
77482;BME280;66582;43.004;-75.010;2023-07-13T04:48:21;99803.40;;;19.21;100.00
77482;BME280;66582;43.004;-75.010;2023-07-13T04:50:47;99806.93;;;18.23;100.00
77482;BME280;66582;43.004;-75.010;2023-07-13T04:53:12;99806.47;;;18.13;100.00
77482;BME280;66582;43.004;-75.010;2023-07-13T04:55:37;99811.90;;;17.23;100.00
77482;BME280;66582;43.004;-75.010;2023-07-13T04:58:02;99807.17;;;18.37;100.00
77482;BME280;66582;43.004;-75.010;2023-07-13T05:00:28;99801.04;;;19.60;100.00
77482;BME280;66582;43.004;-75.010;2023-07-13T05:02:54;99801.74;;;19.37;100.00
77482;BME280;66582;43.004;-75.010;2023-07-13T05:05:19;99806.74;;;17.83;100.00
77482;BME280;66582;43.004;-75.010;2023-07-13T05:07:44;99803.59;;;17.19;100.00
77482;BME280;66582;43.004;-75.010;2023-07-13T05:10:10;99795.01;;;18.65;100.00
77482;BME280;66582;43.004;-75.010;2023-07-13T05:12:35;99789.74;;;20.46;100.00
77482;BME280;66582;43.004;-75.010;2023-07-13T05:15:01;99785.03;;;21.14;100.00
77482;BME280;66582;43.004;-75.010;2023-07-13T05:17:27;99780.06;;;22.39;100.00
77482;BME280;66582;43.004;-75.010;2023-07-13T05:19:52;99784.22;;;21.68;100.00
77482;BME280;66582;43.004;-75.010;2023-07-13T05:22:17;99778.45;;;22.55;100.00
77482;BME280;66582;43.004;-75.010;2023-07-13T05:24:43;99792.56;;;18.61;100.00
77482;BME280;66582;43.004;-75.010;2023-07-13T05:27:08;99789.84;;;18.02;100.00
77482;BME280;66582;43.004;-75.010;2023-07-13T05:29:34;99782.51;;;20.04;100.00
77482;BME280;66582;43.004;-75.010;2023-07-13T05:31:59;99783.04;;;20.47;100.00
77482;BME280;66582;43.004;-75.010;2023-07-13T05:34:24;99791.80;;;17.80;100.00
77482;BME280;66582;43.004;-75.010;2023-07-13T05:36:50;99794.13;;;16.90;100.00
77482;BME280;66582;43.004;-75.010;2023-07-13T05:39:16;99787.72;;;17.71;100.00
77482;BME280;66582;43.004;-75.010;2023-07-13T05:41:41;99782.36;;;19.09;100.00
77482;BME280;66582;43.004;-75.010;2023-07-13T05:44:07;99781.15;;;20.87;100.00
77482;BME280;66582;43.004;-75.010;2023-07-13T05:46:32;99770.58;;;22.53;100.00
77482;BME280;66582;43.004;-75.010;2023-07-13T05:48:58;99770.91;;;23.15;100.00
77482;BME280;66582;43.004;-75.010;2023-07-13T05:51:25;99773.78;;;23.15;98.03
77482;BME280;66582;43.004;-75.010;2023-07-13T05:53:50;99775.66;;;23.31;96.55
77482;BME280;66582;43.004;-75.010;2023-07-13T05:56:16;99769.50;;;24.08;93.53
77482;BME280;66582;43.004;-75.010;2023-07-13T05:58:40;99762.43;;;24.45;90.35
77482;BME280;66582;43.004;-75.010;2023-07-13T06:01:10;99754.54;;;25.34;83.77
77482;BME280;66582;43.004;-75.010;2023-07-13T06:03:32;99760.03;;;25.68;81.47
77482;BME280;66582;43.004;-75.010;2023-07-13T06:05:56;99754.95;;;26.55;77.20
77482;BME280;66582;43.004;-75.010;2023-07-13T06:08:22;99751.89;;;25.19;80.58
77482;BME280;66582;43.004;-75.010;2023-07-13T06:10:48;99755.51;;;24.11;83.59
77482;BME280;66582;43.004;-75.010;2023-07-13T06:13:13;99752.56;;;23.89;87.57
77482;BME280;66582;43.004;-75.010;2023-07-13T06:15:38;99752.92;;;24.06;86.89
77482;BME280;66582;43.004;-75.010;2023-07-13T06:18:04;99753.97;;;24.88;83.72
77482;BME280;66582;43.004;-75.010;2023-07-13T06:20:29;99760.25;;;23.33;88.90
77482;BME280;66582;43.004;-75.010;2023-07-13T06:22:55;99760.15;;;22.61;93.12
77482;BME280;66582;43.004;-75.010;2023-07-13T06:25:20;99755.34;;;23.75;88.22
77482;BME280;66582;43.004;-75.010;2023-07-13T06:27:46;99759.71;;;23.69;88.96
77482;BME280;66582;43.004;-75.010;2023-07-13T06:30:12;99762.07;;;24.43;84.70
77482;BME280;66582;43.004;-75.010;2023-07-13T06:32:40;99757.50;;;24.08;84.85
77482;BME280;66582;43.004;-75.010;2023-07-13T06:35:02;99746.82;;;25.48;79.49
77482;BME280;66582;43.004;-75.010;2023-07-13T06:37:28;99750.89;;;24.03;84.92
77482;BME280;66582;43.004;-75.010;2023-07-13T06:39:53;99747.89;;;22.58;90.14
77482;BME280;66582;43.004;-75.010;2023-07-13T06:42:19;99741.17;;;21.83;95.03
77482;BME280;66582;43.004;-75.010;2023-07-13T06:44:44;99738.47;;;24.41;84.67
77482;BME280;66582;43.004;-75.010;2023-07-13T06:47:09;99728.35;;;25.69;78.25
77482;BME280;66582;43.004;-75.010;2023-07-13T06:49:35;99736.75;;;25.03;79.82
77482;BME280;66582;43.004;-75.010;2023-07-13T06:52:00;99736.49;;;25.13;78.39
77482;BME280;66582;43.004;-75.010;2023-07-13T06:54:26;99738.62;;;23.51;88.04
77482;BME280;66582;43.004;-75.010;2023-07-13T06:56:51;99740.24;;;24.49;84.60
77482;BME280;66582;43.004;-75.010;2023-07-13T06:59:17;99735.39;;;24.93;79.53
77482;BME280;66582;43.004;-75.010;2023-07-13T07:01:42;99735.01;;;22.97;88.30
77482;BME280;66582;43.004;-75.010;2023-07-13T07:04:08;99733.98;;;20.69;100.00
77482;BME280;66582;43.004;-75.010;2023-07-13T07:06:33;99724.33;;;22.39;94.04
77482;BME280;66582;43.004;-75.010;2023-07-13T07:08:59;99724.87;;;21.82;100.00
77482;BME280;66582;43.004;-75.010;2023-07-13T07:11:25;99731.82;;;19.00;100.00
77482;BME280;66582;43.004;-75.010;2023-07-13T07:13:50;99729.89;;;20.50;100.00
77482;BME280;66582;43.004;-75.010;2023-07-13T07:16:16;99728.19;;;20.69;100.00
77482;BME280;66582;43.004;-75.010;2023-07-13T07:18:42;99721.86;;;21.68;100.00
77482;BME280;66582;43.004;-75.010;2023-07-13T07:21:06;99720.06;;;23.05;97.01
77482;BME280;66582;43.004;-75.010;2023-07-13T07:23:32;99726.20;;;22.81;93.84
77482;BME280;66582;43.004;-75.010;2023-07-13T07:25:57;99724.42;;;23.93;91.37
77482;BME280;66582;43.004;-75.010;2023-07-13T07:28:23;99721.03;;;23.66;88.93
77482;BME280;66582;43.004;-75.010;2023-07-13T07:30:49;99715.61;;;24.66;84.01
77482;BME280;66582;43.004;-75.010;2023-07-13T07:33:13;99711.38;;;25.16;80.70
77482;BME280;66582;43.004;-75.010;2023-07-13T07:35:40;99711.57;;;23.34;88.44
77482;BME280;66582;43.004;-75.010;2023-07-13T07:38:04;99712.28;;;24.87;81.69
77482;BME280;66582;43.004;-75.010;2023-07-13T07:40:30;99716.84;;;23.94;83.90
77482;BME280;66582;43.004;-75.010;2023-07-13T07:42:55;99714.86;;;25.18;79.53
77482;BME280;66582;43.004;-75.010;2023-07-13T07:45:21;99709.96;;;24.25;81.10
77482;BME280;66582;43.004;-75.010;2023-07-13T07:47:47;99713.69;;;20.54;100.00
77482;BME280;66582;43.004;-75.010;2023-07-13T07:50:12;99708.44;;;21.95;98.70
77482;BME280;66582;43.004;-75.010;2023-07-13T07:52:37;99701.50;;;23.80;88.09
77482;BME280;66582;43.004;-75.010;2023-07-13T07:55:04;99707.28;;;20.22;100.00
77482;BME280;66582;43.004;-75.010;2023-07-13T07:57:29;99700.58;;;21.73;100.00
77482;BME280;66582;43.004;-75.010;2023-07-13T07:59:54;99695.19;;;23.57;90.44
77482;BME280;66582;43.004;-75.010;2023-07-13T08:02:20;99690.39;;;23.68;89.40
77482;BME280;66582;43.004;-75.010;2023-07-13T08:04:46;99698.77;;;24.07;85.55
77482;BME280;66582;43.004;-75.010;2023-07-13T08:07:11;99697.86;;;23.47;87.34
77482;BME280;66582;43.004;-75.010;2023-07-13T08:09:36;99699.70;;;23.62;86.65
77482;BME280;66582;43.004;-75.010;2023-07-13T08:12:01;99697.73;;;24.34;85.19
77482;BME280;66582;43.004;-75.010;2023-07-13T08:14:27;99703.78;;;24.50;83.25
77482;BME280;66582;43.004;-75.010;2023-07-13T08:16:51;99710.31;;;24.79;81.24
77482;BME280;66582;43.004;-75.010;2023-07-13T08:19:17;99705.06;;;25.73;77.97
77482;BME280;66582;43.004;-75.010;2023-07-13T08:21:43;99701.22;;;23.29;86.12
77482;BME280;66582;43.004;-75.010;2023-07-13T08:24:08;99701.52;;;23.55;88.44
77482;BME280;66582;43.004;-75.010;2023-07-13T08:26:33;99709.57;;;22.84;90.56
77482;BME280;66582;43.004;-75.010;2023-07-13T08:28:58;99710.70;;;23.37;89.53
77482;BME280;66582;43.004;-75.010;2023-07-13T08:31:24;99711.47;;;22.49;94.59
77482;BME280;66582;43.004;-75.010;2023-07-13T08:33:49;99708.60;;;23.66;89.88
77482;BME280;66582;43.004;-75.010;2023-07-13T08:36:15;99708.02;;;24.45;84.14
77482;BME280;66582;43.004;-75.010;2023-07-13T08:38:40;99717.49;;;24.10;86.31
77482;BME280;66582;43.004;-75.010;2023-07-13T08:41:13;99718.78;;;24.45;84.78
77482;BME280;66582;43.004;-75.010;2023-07-13T08:43:36;99727.54;;;24.07;85.76
77482;BME280;66582;43.004;-75.010;2023-07-13T08:46:04;99713.74;;;25.13;80.88
77482;BME280;66582;43.004;-75.010;2023-07-13T08:48:26;99716.22;;;25.37;79.84
77482;BME280;66582;43.004;-75.010;2023-07-13T08:50:51;99714.86;;;25.81;76.94
77482;BME280;66582;43.004;-75.010;2023-07-13T08:53:14;99712.46;;;26.14;76.08
77482;BME280;66582;43.004;-75.010;2023-07-13T08:55:39;99713.35;;;25.27;77.62
77482;BME280;66582;43.004;-75.010;2023-07-13T08:58:10;99716.17;;;25.62;77.16
77482;BME280;66582;43.004;-75.010;2023-07-13T09:00:37;99712.41;;;25.96;75.22
77482;BME280;66582;43.004;-75.010;2023-07-13T09:02:57;99711.14;;;24.87;79.08
77482;BME280;66582;43.004;-75.010;2023-07-13T09:05:25;99705.20;;;24.11;83.73
77482;BME280;66582;43.004;-75.010;2023-07-13T09:07:57;99703.80;;;25.17;79.40
77482;BME280;66582;43.004;-75.010;2023-07-13T09:10:15;99719.87;;;24.42;82.43
77482;BME280;66582;43.004;-75.010;2023-07-13T09:12:45;99714.94;;;24.87;82.74
77482;BME280;66582;43.004;-75.010;2023-07-13T09:15:04;99706.78;;;25.36;80.01
77482;BME280;66582;43.004;-75.010;2023-07-13T09:17:31;99706.57;;;25.20;78.99
77482;BME280;66582;43.004;-75.010;2023-07-13T09:19:58;99703.50;;;26.34;75.75
77482;BME280;66582;43.004;-75.010;2023-07-13T09:22:20;99705.77;;;25.07;78.50
77482;BME280;66582;43.004;-75.010;2023-07-13T09:24:52;99702.05;;;26.10;76.24
77482;BME280;66582;43.004;-75.010;2023-07-13T09:27:14;99707.29;;;24.71;80.95
77482;BME280;66582;43.004;-75.010;2023-07-13T09:29:34;99707.38;;;24.73;81.57
77482;BME280;66582;43.004;-75.010;2023-07-13T09:32:03;99701.03;;;25.38;80.32
77482;BME280;66582;43.004;-75.010;2023-07-13T09:34:26;99707.06;;;24.34;85.27
77482;BME280;66582;43.004;-75.010;2023-07-13T09:36:50;99710.72;;;23.34;88.78
77482;BME280;66582;43.004;-75.010;2023-07-13T09:39:21;99706.65;;;23.44;90.40
77482;BME280;66582;43.004;-75.010;2023-07-13T09:41:47;99705.23;;;24.07;87.40
77482;BME280;66582;43.004;-75.010;2023-07-13T09:44:10;99701.95;;;22.38;91.99
77482;BME280;66582;43.004;-75.010;2023-07-13T09:46:32;99703.35;;;22.48;99.45
77482;BME280;66582;43.004;-75.010;2023-07-13T09:48:58;99699.05;;;22.89;95.46
77482;BME280;66582;43.004;-75.010;2023-07-13T09:51:23;99701.68;;;24.91;85.86
77482;BME280;66582;43.004;-75.010;2023-07-13T09:53:48;99704.53;;;24.93;83.44
77482;BME280;66582;43.004;-75.010;2023-07-13T09:56:21;99704.12;;;24.54;83.76
77482;BME280;66582;43.004;-75.010;2023-07-13T09:58:39;99706.80;;;21.61;96.09
77482;BME280;66582;43.004;-75.010;2023-07-13T10:01:05;99720.10;;;18.49;100.00
77482;BME280;66582;43.004;-75.010;2023-07-13T10:03:31;99724.10;;;17.83;100.00
77482;BME280;66582;43.004;-75.010;2023-07-13T10:06:03;99721.74;;;17.90;100.00
77482;BME280;66582;43.004;-75.010;2023-07-13T10:08:24;99711.15;;;21.08;100.00
77482;BME280;66582;43.004;-75.010;2023-07-13T10:10:45;99706.50;;;21.84;100.00
77482;BME280;66582;43.004;-75.010;2023-07-13T10:13:24;99702.98;;;22.10;100.00
77482;BME280;66582;43.004;-75.010;2023-07-13T10:15:37;99700.98;;;23.34;100.00
77482;BME280;66582;43.004;-75.010;2023-07-13T10:18:02;99703.55;;;22.52;100.00
77482;BME280;66582;43.004;-75.010;2023-07-13T10:20:28;99696.47;;;24.29;97.45
77482;BME280;66582;43.004;-75.010;2023-07-13T10:22:57;99699.50;;;24.98;93.49
77482;BME280;66582;43.004;-75.010;2023-07-13T10:25:21;99697.44;;;23.29;98.69
77482;BME280;66582;43.004;-75.010;2023-07-13T10:27:46;99692.67;;;24.21;94.42
77482;BME280;66582;43.004;-75.010;2023-07-13T10:30:17;99704.02;;;19.76;100.00
77482;BME280;66582;43.004;-75.010;2023-07-13T10:32:36;99706.47;;;17.73;100.00
77482;BME280;66582;43.004;-75.010;2023-07-13T10:35:01;99704.13;;;17.90;100.00
77482;BME280;66582;43.004;-75.010;2023-07-13T10:37:36;99697.61;;;18.73;100.00
77482;BME280;66582;43.004;-75.010;2023-07-13T10:39:55;99682.81;;;21.32;100.00
77482;BME280;66582;43.004;-75.010;2023-07-13T10:42:23;99675.55;;;21.44;100.00
77482;BME280;66582;43.004;-75.010;2023-07-13T10:44:43;99677.16;;;19.93;100.00
77482;BME280;66582;43.004;-75.010;2023-07-13T10:47:14;99664.14;;;22.24;100.00
77482;BME280;66582;43.004;-75.010;2023-07-13T10:49:36;99663.33;;;23.36;100.00
77482;BME280;66582;43.004;-75.010;2023-07-13T10:51:59;99663.75;;;22.87;100.00
77482;BME280;66582;43.004;-75.010;2023-07-13T10:54:30;99659.59;;;22.85;100.00
77482;BME280;66582;43.004;-75.010;2023-07-13T10:56:53;99650.45;;;24.06;100.00
77482;BME280;66582;43.004;-75.010;2023-07-13T10:59:18;99645.69;;;22.57;100.00
77482;BME280;66582;43.004;-75.010;2023-07-13T11:01:49;99645.58;;;23.03;100.00
77482;BME280;66582;43.004;-75.010;2023-07-13T11:04:12;99644.78;;;23.72;100.00
77482;BME280;66582;43.004;-75.010;2023-07-13T11:06:37;99641.98;;;23.92;100.00
77482;BME280;66582;43.004;-75.010;2023-07-13T11:09:03;99639.48;;;23.72;100.00
77482;BME280;66582;43.004;-75.010;2023-07-13T11:11:35;99638.29;;;22.77;100.00
77482;BME280;66582;43.004;-75.010;2023-07-13T11:13:59;99630.96;;;22.40;100.00
77482;BME280;66582;43.004;-75.010;2023-07-13T11:18:40;99633.06;;;23.79;100.00
77482;BME280;66582;43.004;-75.010;2023-07-13T11:21:15;99632.09;;;22.70;100.00
77482;BME280;66582;43.004;-75.010;2023-07-13T11:23:31;99629.58;;;21.90;100.00
77482;BME280;66582;43.004;-75.010;2023-07-13T11:25:57;99640.46;;;19.25;100.00
77482;BME280;66582;43.004;-75.010;2023-07-13T11:28:24;99634.60;;;19.49;100.00
77482;BME280;66582;43.004;-75.010;2023-07-13T11:30:49;99633.34;;;19.63;100.00
77482;BME280;66582;43.004;-75.010;2023-07-13T11:33:17;99623.94;;;21.97;100.00
77482;BME280;66582;43.004;-75.010;2023-07-13T11:35:44;99628.19;;;21.69;100.00
77482;BME280;66582;43.004;-75.010;2023-07-13T11:38:10;99620.10;;;23.19;100.00
77482;BME280;66582;43.004;-75.010;2023-07-13T11:40:31;99618.76;;;23.79;100.00
77482;BME280;66582;43.004;-75.010;2023-07-13T11:42:59;99619.67;;;24.18;100.00
77482;BME280;66582;43.004;-75.010;2023-07-13T11:45:22;99629.74;;;21.15;100.00
77482;BME280;66582;43.004;-75.010;2023-07-13T11:47:46;99627.59;;;23.86;100.00
77482;BME280;66582;43.004;-75.010;2023-07-13T11:50:18;99628.74;;;24.70;100.00
77482;BME280;66582;43.004;-75.010;2023-07-13T11:52:37;99631.21;;;24.36;100.00
77482;BME280;66582;43.004;-75.010;2023-07-13T11:55:12;99623.07;;;24.05;100.00
77482;BME280;66582;43.004;-75.010;2023-07-13T11:57:29;99618.47;;;25.10;99.56
77482;BME280;66582;43.004;-75.010;2023-07-13T11:59:55;99626.60;;;23.74;100.00
77482;BME280;66582;43.004;-75.010;2023-07-13T12:02:26;99624.76;;;25.01;100.00
77482;BME280;66582;43.004;-75.010;2023-07-13T12:04:45;99625.01;;;25.88;95.43
77482;BME280;66582;43.004;-75.010;2023-07-13T12:07:15;99626.04;;;25.85;95.85
77482;BME280;66582;43.004;-75.010;2023-07-13T12:09:35;99625.78;;;25.93;93.99
77482;BME280;66582;43.004;-75.010;2023-07-13T12:12:02;99626.11;;;26.26;91.42
77482;BME280;66582;43.004;-75.010;2023-07-13T12:14:26;99625.64;;;26.56;89.62
77482;BME280;66582;43.004;-75.010;2023-07-13T12:16:52;99621.42;;;27.67;84.57
77482;BME280;66582;43.004;-75.010;2023-07-13T12:19:20;99617.45;;;26.67;87.45
77482;BME280;66582;43.004;-75.010;2023-07-13T12:21:42;99619.16;;;26.48;88.22
77482;BME280;66582;43.004;-75.010;2023-07-13T12:24:14;99615.39;;;26.03;90.87
77482;BME280;66582;43.004;-75.010;2023-07-13T12:26:34;99617.05;;;26.12;88.71
77482;BME280;66582;43.004;-75.010;2023-07-13T12:29:01;99615.54;;;26.26;90.61